sensor_id;sensor_type;location;lat;lon;timestamp;temperature;humidity
18934;DHT22;9599;53.706;10.384;2023-06-26T00:01:29;21.60;99.90
18934;DHT22;9599;53.706;10.384;2023-06-26T00:04:00;21.60;99.90
18934;DHT22;9599;53.706;10.384;2023-06-26T00:06:30;21.60;99.90
18934;DHT22;9599;53.706;10.384;2023-06-26T00:08:58;21.60;99.90
18934;DHT22;9599;53.706;10.384;2023-06-26T00:11:26;21.60;99.90
18934;DHT22;9599;53.706;10.384;2023-06-26T00:13:57;21.60;99.90
18934;DHT22;9599;53.706;10.384;2023-06-26T00:16:26;21.60;99.90
18934;DHT22;9599;53.706;10.384;2023-06-26T00:18:54;21.60;99.90
18934;DHT22;9599;53.706;10.384;2023-06-26T00:21:22;21.60;99.90
18934;DHT22;9599;53.706;10.384;2023-06-26T00:23:52;21.60;99.90
18934;DHT22;9599;53.706;10.384;2023-06-26T00:26:20;21.60;99.90
18934;DHT22;9599;53.706;10.384;2023-06-26T00:28:48;21.60;99.90
18934;DHT22;9599;53.706;10.384;2023-06-26T00:31:16;21.50;99.90
18934;DHT22;9599;53.706;10.384;2023-06-26T00:33:44;21.50;99.90
18934;DHT22;9599;53.706;10.384;2023-06-26T00:36:12;21.50;99.90
18934;DHT22;9599;53.706;10.384;2023-06-26T00:38:41;21.50;99.90
18934;DHT22;9599;53.706;10.384;2023-06-26T00:41:10;21.50;99.90
18934;DHT22;9599;53.706;10.384;2023-06-26T00:43:40;21.50;99.90
18934;DHT22;9599;53.706;10.384;2023-06-26T00:46:12;21.50;99.90
18934;DHT22;9599;53.706;10.384;2023-06-26T00:48:42;21.40;99.90
18934;DHT22;9599;53.706;10.384;2023-06-26T00:51:12;21.50;99.90
18934;DHT22;9599;53.706;10.384;2023-06-26T00:53:42;21.40;99.90
18934;DHT22;9599;53.706;10.384;2023-06-26T00:56:13;21.40;99.90
18934;DHT22;9599;53.706;10.384;2023-06-26T00:58:42;21.40;99.90
18934;DHT22;9599;53.706;10.384;2023-06-26T01:01:10;21.30;99.90
18934;DHT22;9599;53.706;10.384;2023-06-26T01:03:43;21.30;99.90
18934;DHT22;9599;53.706;10.384;2023-06-26T01:06:13;21.30;99.90
18934;DHT22;9599;53.706;10.384;2023-06-26T01:08:42;21.30;99.90
18934;DHT22;9599;53.706;10.384;2023-06-26T01:11:12;21.30;99.90
18934;DHT22;9599;53.706;10.384;2023-06-26T01:13:42;21.20;99.90
18934;DHT22;9599;53.706;10.384;2023-06-26T01:16:12;21.30;99.90
18934;DHT22;9599;53.706;10.384;2023-06-26T01:18:40;21.20;99.90
18934;DHT22;9599;53.706;10.384;2023-06-26T01:21:10;21.20;99.90
18934;DHT22;9599;53.706;10.384;2023-06-26T01:23:57;21.20;99.90
18934;DHT22;9599;53.706;10.384;2023-06-26T01:26:29;21.20;99.90
18934;DHT22;9599;53.706;10.384;2023-06-26T01:28:58;21.10;99.90
18934;DHT22;9599;53.706;10.384;2023-06-26T01:31:28;21.10;99.90
18934;DHT22;9599;53.706;10.384;2023-06-26T01:33:59;21.10;99.90
18934;DHT22;9599;53.706;10.384;2023-06-26T01:36:28;21.10;99.90
18934;DHT22;9599;53.706;10.384;2023-06-26T01:38:56;21.10;99.90
18934;DHT22;9599;53.706;10.384;2023-06-26T01:41:24;21.10;99.90
18934;DHT22;9599;53.706;10.384;2023-06-26T01:44:11;21.10;99.90
18934;DHT22;9599;53.706;10.384;2023-06-26T01:46:48;21.00;99.90
18934;DHT22;9599;53.706;10.384;2023-06-26T01:49:24;21.00;99.90
18934;DHT22;9599;53.706;10.384;2023-06-26T01:51:58;21.00;99.90
18934;DHT22;9599;53.706;10.384;2023-06-26T01:54:35;21.00;99.90
18934;DHT22;9599;53.706;10.384;2023-06-26T01:57:06;21.00;99.90
18934;DHT22;9599;53.706;10.384;2023-06-26T01:59:40;20.90;99.90
18934;DHT22;9599;53.706;10.384;2023-06-26T02:02:10;20.90;99.90
18934;DHT22;9599;53.706;10.384;2023-06-26T02:04:39;20.90;99.90
18934;DHT22;9599;53.706;10.384;2023-06-26T02:07:07;20.90;99.90
18934;DHT22;9599;53.706;10.384;2023-06-26T02:09:36;20.80;99.90
18934;DHT22;9599;53.706;10.384;2023-06-26T02:12:05;20.90;99.90
18934;DHT22;9599;53.706;10.384;2023-06-26T02:14:33;20.90;99.90
18934;DHT22;9599;53.706;10.384;2023-06-26T02:17:02;20.80;99.90
18934;DHT22;9599;53.706;10.384;2023-06-26T02:19:30;20.80;99.90
18934;DHT22;9599;53.706;10.384;2023-06-26T02:21:58;20.80;99.90
18934;DHT22;9599;53.706;10.384;2023-06-26T02:24:27;20.80;99.90
18934;DHT22;9599;53.706;10.384;2023-06-26T02:26:57;20.70;99.90
18934;DHT22;9599;53.706;10.384;2023-06-26T02:29:25;20.70;99.90
18934;DHT22;9599;53.706;10.384;2023-06-26T02:31:53;20.70;99.90
18934;DHT22;9599;53.706;10.384;2023-06-26T02:34:23;20.70;99.90
18934;DHT22;9599;53.706;10.384;2023-06-26T02:36:52;20.70;99.90
18934;DHT22;9599;53.706;10.384;2023-06-26T02:39:22;20.70;99.90
18934;DHT22;9599;53.706;10.384;2023-06-26T02:41:50;20.60;99.90
18934;DHT22;9599;53.706;10.384;2023-06-26T02:44:20;20.60;99.90
18934;DHT22;9599;53.706;10.384;2023-06-26T02:46:48;20.60;99.90
18934;DHT22;9599;53.706;10.384;2023-06-26T02:49:17;20.60;99.90
18934;DHT22;9599;53.706;10.384;2023-06-26T02:51:50;20.60;99.90
18934;DHT22;9599;53.706;10.384;2023-06-26T02:54:24;20.60;99.90
18934;DHT22;9599;53.706;10.384;2023-06-26T02:56:55;20.60;99.90
18934;DHT22;9599;53.706;10.384;2023-06-26T02:59:27;20.50;99.90
18934;DHT22;9599;53.706;10.384;2023-06-26T03:01:56;20.50;99.90
18934;DHT22;9599;53.706;10.384;2023-06-26T03:04:36;20.60;99.90
18934;DHT22;9599;53.706;10.384;2023-06-26T03:07:09;20.50;99.90
18934;DHT22;9599;53.706;10.384;2023-06-26T03:09:40;20.60;99.90
18934;DHT22;9599;53.706;10.384;2023-06-26T03:12:11;20.50;99.90
18934;DHT22;9599;53.706;10.384;2023-06-26T03:14:39;20.60;99.90
18934;DHT22;9599;53.706;10.384;2023-06-26T03:17:07;20.60;99.90
18934;DHT22;9599;53.706;10.384;2023-06-26T03:19:37;20.50;99.90
18934;DHT22;9599;53.706;10.384;2023-06-26T03:22:18;20.50;99.90
18934;DHT22;9599;53.706;10.384;2023-06-26T03:24:47;20.60;99.90
18934;DHT22;9599;53.706;10.384;2023-06-26T03:27:16;20.60;99.90
18934;DHT22;9599;53.706;10.384;2023-06-26T03:29:48;20.60;99.90
18934;DHT22;9599;53.706;10.384;2023-06-26T03:32:21;20.60;99.90
18934;DHT22;9599;53.706;10.384;2023-06-26T03:34:49;20.60;99.90
18934;DHT22;9599;53.706;10.384;2023-06-26T03:37:18;20.60;99.90
18934;DHT22;9599;53.706;10.384;2023-06-26T03:39:48;20.70;99.90
18934;DHT22;9599;53.706;10.384;2023-06-26T03:42:16;20.70;99.90
18934;DHT22;9599;53.706;10.384;2023-06-26T03:44:44;20.70;99.90
18934;DHT22;9599;53.706;10.384;2023-06-26T03:47:12;20.70;99.90
18934;DHT22;9599;53.706;10.384;2023-06-26T03:49:40;20.80;99.90
18934;DHT22;9599;53.706;10.384;2023-06-26T03:52:08;20.80;99.90
18934;DHT22;9599;53.706;10.384;2023-06-26T03:54:40;20.90;99.90
18934;DHT22;9599;53.706;10.384;2023-06-26T03:57:09;20.80;99.90
18934;DHT22;9599;53.706;10.384;2023-06-26T03:59:38;20.80;99.90
18934;DHT22;9599;53.706;10.384;2023-06-26T04:02:06;20.80;99.90
18934;DHT22;9599;53.706;10.384;2023-06-26T04:04:34;20.90;99.90
18934;DHT22;9599;53.706;10.384;2023-06-26T04:07:03;21.00;99.90
18934;DHT22;9599;53.706;10.384;2023-06-26T04:09:31;20.90;99.90
18934;DHT22;9599;53.706;10.384;2023-06-26T04:12:01;21.00;99.90
18934;DHT22;9599;53.706;10.384;2023-06-26T04:14:29;21.10;99.90
18934;DHT22;9599;53.706;10.384;2023-06-26T04:16:58;21.10;99.90
18934;DHT22;9599;53.706;10.384;2023-06-26T04:19:29;21.20;99.90
18934;DHT22;9599;53.706;10.384;2023-06-26T04:21:57;21.20;99.90
18934;DHT22;9599;53.706;10.384;2023-06-26T04:24:25;21.20;99.90
18934;DHT22;9599;53.706;10.384;2023-06-26T04:26:53;21.30;99.90
18934;DHT22;9599;53.706;10.384;2023-06-26T04:29:25;21.40;99.90
18934;DHT22;9599;53.706;10.384;2023-06-26T04:31:54;21.40;99.90
18934;DHT22;9599;53.706;10.384;2023-06-26T04:34:25;21.50;99.90
18934;DHT22;9599;53.706;10.384;2023-06-26T04:36:54;21.60;99.90
18934;DHT22;9599;53.706;10.384;2023-06-26T04:39:22;21.60;99.90
18934;DHT22;9599;53.706;10.384;2023-06-26T04:41:50;21.60;99.90
18934;DHT22;9599;53.706;10.384;2023-06-26T04:44:19;21.60;99.90
18934;DHT22;9599;53.706;10.384;2023-06-26T04:46:49;21.80;99.90
18934;DHT22;9599;53.706;10.384;2023-06-26T04:49:20;21.90;99.90
18934;DHT22;9599;53.706;10.384;2023-06-26T04:51:48;22.00;99.90
18934;DHT22;9599;53.706;10.384;2023-06-26T04:54:17;22.10;99.90
18934;DHT22;9599;53.706;10.384;2023-06-26T04:56:45;22.30;99.90
18934;DHT22;9599;53.706;10.384;2023-06-26T04:59:14;22.40;99.90
18934;DHT22;9599;53.706;10.384;2023-06-26T05:01:43;22.60;99.90
18934;DHT22;9599;53.706;10.384;2023-06-26T05:04:16;22.80;99.90
18934;DHT22;9599;53.706;10.384;2023-06-26T05:06:44;22.90;99.90
18934;DHT22;9599;53.706;10.384;2023-06-26T05:09:12;23.00;99.90
18934;DHT22;9599;53.706;10.384;2023-06-26T05:11:42;23.20;99.90
18934;DHT22;9599;53.706;10.384;2023-06-26T05:14:10;23.40;99.90
18934;DHT22;9599;53.706;10.384;2023-06-26T05:16:40;23.50;99.90
18934;DHT22;9599;53.706;10.384;2023-06-26T05:19:08;23.70;99.90
18934;DHT22;9599;53.706;10.384;2023-06-26T05:21:38;23.90;99.90
18934;DHT22;9599;53.706;10.384;2023-06-26T05:24:07;24.00;99.90
18934;DHT22;9599;53.706;10.384;2023-06-26T05:26:37;24.00;99.90
18934;DHT22;9599;53.706;10.384;2023-06-26T05:29:05;24.20;99.90
18934;DHT22;9599;53.706;10.384;2023-06-26T05:31:35;24.40;99.90
18934;DHT22;9599;53.706;10.384;2023-06-26T05:34:05;24.60;99.90
18934;DHT22;9599;53.706;10.384;2023-06-26T05:36:36;24.80;99.90
18934;DHT22;9599;53.706;10.384;2023-06-26T05:39:06;25.00;99.90
18934;DHT22;9599;53.706;10.384;2023-06-26T05:41:35;25.00;99.90
18934;DHT22;9599;53.706;10.384;2023-06-26T05:44:04;25.20;99.90
18934;DHT22;9599;53.706;10.384;2023-06-26T05:46:31;25.40;99.90
18934;DHT22;9599;53.706;10.384;2023-06-26T05:49:00;25.60;99.90
18934;DHT22;9599;53.706;10.384;2023-06-26T05:51:28;25.70;99.90
18934;DHT22;9599;53.706;10.384;2023-06-26T05:53:58;25.90;99.90
18934;DHT22;9599;53.706;10.384;2023-06-26T05:56:28;25.90;99.90
18934;DHT22;9599;53.706;10.384;2023-06-26T05:58:57;26.10;99.90
18934;DHT22;9599;53.706;10.384;2023-06-26T06:01:25;26.30;99.90
18934;DHT22;9599;53.706;10.384;2023-06-26T06:03:53;26.40;99.90
18934;DHT22;9599;53.706;10.384;2023-06-26T06:06:21;26.70;99.90
18934;DHT22;9599;53.706;10.384;2023-06-26T06:08:49;26.80;99.90
18934;DHT22;9599;53.706;10.384;2023-06-26T06:11:19;26.90;99.90
18934;DHT22;9599;53.706;10.384;2023-06-26T06:13:47;27.00;99.90
18934;DHT22;9599;53.706;10.384;2023-06-26T06:16:15;27.20;99.90
18934;DHT22;9599;53.706;10.384;2023-06-26T06:18:43;27.30;99.90
18934;DHT22;9599;53.706;10.384;2023-06-26T06:21:11;27.40;99.90
18934;DHT22;9599;53.706;10.384;2023-06-26T06:23:40;27.60;99.90
18934;DHT22;9599;53.706;10.384;2023-06-26T06:26:08;27.70;99.90
18934;DHT22;9599;53.706;10.384;2023-06-26T06:28:38;27.90;99.90
18934;DHT22;9599;53.706;10.384;2023-06-26T06:31:07;27.90;99.90
18934;DHT22;9599;53.706;10.384;2023-06-26T06:33:35;28.00;99.90
18934;DHT22;9599;53.706;10.384;2023-06-26T06:36:03;28.00;99.90
18934;DHT22;9599;53.706;10.384;2023-06-26T06:38:31;28.10;99.90
18934;DHT22;9599;53.706;10.384;2023-06-26T06:41:00;28.20;99.90
18934;DHT22;9599;53.706;10.384;2023-06-26T06:43:28;28.40;99.90
18934;DHT22;9599;53.706;10.384;2023-06-26T06:45:57;28.70;99.90
18934;DHT22;9599;53.706;10.384;2023-06-26T06:48:25;28.70;99.90
18934;DHT22;9599;53.706;10.384;2023-06-26T06:50:53;28.80;99.90
18934;DHT22;9599;53.706;10.384;2023-06-26T06:53:21;28.70;99.90
18934;DHT22;9599;53.706;10.384;2023-06-26T06:55:49;28.80;99.90
18934;DHT22;9599;53.706;10.384;2023-06-26T06:58:18;28.90;99.90
18934;DHT22;9599;53.706;10.384;2023-06-26T07:00:46;29.10;99.90
18934;DHT22;9599;53.706;10.384;2023-06-26T07:03:16;29.30;99.90
18934;DHT22;9599;53.706;10.384;2023-06-26T07:05:44;29.20;99.90
18934;DHT22;9599;53.706;10.384;2023-06-26T07:08:12;29.20;99.90
18934;DHT22;9599;53.706;10.384;2023-06-26T07:10:41;29.50;99.90
18934;DHT22;9599;53.706;10.384;2023-06-26T07:13:09;29.70;99.90
18934;DHT22;9599;53.706;10.384;2023-06-26T07:15:37;29.90;99.90
18934;DHT22;9599;53.706;10.384;2023-06-26T07:18:05;30.00;99.90
18934;DHT22;9599;53.706;10.384;2023-06-26T07:20:35;30.00;99.90
18934;DHT22;9599;53.706;10.384;2023-06-26T07:23:04;29.90;99.90
18934;DHT22;9599;53.706;10.384;2023-06-26T07:25:32;29.90;99.90
18934;DHT22;9599;53.706;10.384;2023-06-26T07:28:00;29.70;99.90
18934;DHT22;9599;53.706;10.384;2023-06-26T07:30:28;29.70;99.90
18934;DHT22;9599;53.706;10.384;2023-06-26T07:32:56;29.90;99.90
18934;DHT22;9599;53.706;10.384;2023-06-26T07:35:24;30.00;99.90
18934;DHT22;9599;53.706;10.384;2023-06-26T07:37:55;30.10;99.90
18934;DHT22;9599;53.706;10.384;2023-06-26T07:40:23;30.20;99.90
18934;DHT22;9599;53.706;10.384;2023-06-26T07:42:51;30.30;99.90
18934;DHT22;9599;53.706;10.384;2023-06-26T07:45:20;30.40;99.90
18934;DHT22;9599;53.706;10.384;2023-06-26T07:47:52;30.40;99.90
18934;DHT22;9599;53.706;10.384;2023-06-26T07:50:20;30.50;99.90
18934;DHT22;9599;53.706;10.384;2023-06-26T07:52:49;30.90;99.90
18934;DHT22;9599;53.706;10.384;2023-06-26T07:55:21;31.20;99.90
18934;DHT22;9599;53.706;10.384;2023-06-26T07:57:49;31.30;99.90
18934;DHT22;9599;53.706;10.384;2023-06-26T08:00:19;31.30;99.90
18934;DHT22;9599;53.706;10.384;2023-06-26T08:02:46;31.20;99.90
18934;DHT22;9599;53.706;10.384;2023-06-26T08:05:15;31.10;99.90
18934;DHT22;9599;53.706;10.384;2023-06-26T08:07:43;31.30;99.90
18934;DHT22;9599;53.706;10.384;2023-06-26T08:10:11;31.40;99.90
18934;DHT22;9599;53.706;10.384;2023-06-26T08:12:41;31.40;99.90
18934;DHT22;9599;53.706;10.384;2023-06-26T08:15:12;31.40;99.90
18934;DHT22;9599;53.706;10.384;2023-06-26T08:17:40;31.20;99.90
18934;DHT22;9599;53.706;10.384;2023-06-26T08:20:09;31.00;99.90
18934;DHT22;9599;53.706;10.384;2023-06-26T08:22:37;31.20;99.90
18934;DHT22;9599;53.706;10.384;2023-06-26T08:25:06;31.10;99.90
18934;DHT22;9599;53.706;10.384;2023-06-26T08:27:34;30.90;99.90
18934;DHT22;9599;53.706;10.384;2023-06-26T08:30:05;30.70;99.90
18934;DHT22;9599;53.706;10.384;2023-06-26T08:32:33;30.60;99.90
18934;DHT22;9599;53.706;10.384;2023-06-26T08:35:01;30.80;99.90
18934;DHT22;9599;53.706;10.384;2023-06-26T08:37:29;30.70;99.90
18934;DHT22;9599;53.706;10.384;2023-06-26T08:39:59;30.70;99.90
18934;DHT22;9599;53.706;10.384;2023-06-26T08:42:27;30.50;99.90
18934;DHT22;9599;53.706;10.384;2023-06-26T08:44:56;30.50;99.90
18934;DHT22;9599;53.706;10.384;2023-06-26T08:47:30;30.60;99.90
18934;DHT22;9599;53.706;10.384;2023-06-26T08:50:07;30.70;99.90
18934;DHT22;9599;53.706;10.384;2023-06-26T08:52:37;30.90;99.90
18934;DHT22;9599;53.706;10.384;2023-06-26T08:55:10;31.20;99.90
18934;DHT22;9599;53.706;10.384;2023-06-26T08:57:39;31.30;99.90
18934;DHT22;9599;53.706;10.384;2023-06-26T09:00:08;31.60;99.90
18934;DHT22;9599;53.706;10.384;2023-06-26T09:02:39;31.30;99.90
18934;DHT22;9599;53.706;10.384;2023-06-26T09:05:12;31.30;99.90
18934;DHT22;9599;53.706;10.384;2023-06-26T09:07:40;31.50;99.90
18934;DHT22;9599;53.706;10.384;2023-06-26T09:10:09;31.40;99.90
18934;DHT22;9599;53.706;10.384;2023-06-26T09:12:37;31.10;99.90
18934;DHT22;9599;53.706;10.384;2023-06-26T09:15:06;31.00;99.90
18934;DHT22;9599;53.706;10.384;2023-06-26T09:17:40;30.90;99.90
18934;DHT22;9599;53.706;10.384;2023-06-26T09:20:09;30.90;99.90
18934;DHT22;9599;53.706;10.384;2023-06-26T09:22:41;30.90;99.90
18934;DHT22;9599;53.706;10.384;2023-06-26T09:25:10;30.70;99.90
18934;DHT22;9599;53.706;10.384;2023-06-26T09:27:38;30.40;99.90
18934;DHT22;9599;53.706;10.384;2023-06-26T09:30:07;30.50;99.90
18934;DHT22;9599;53.706;10.384;2023-06-26T09:32:35;30.60;99.90
18934;DHT22;9599;53.706;10.384;2023-06-26T09:35:07;30.90;99.90
18934;DHT22;9599;53.706;10.384;2023-06-26T09:37:36;31.30;99.90
18934;DHT22;9599;53.706;10.384;2023-06-26T09:40:04;31.50;99.90
18934;DHT22;9599;53.706;10.384;2023-06-26T09:42:34;31.30;99.90
18934;DHT22;9599;53.706;10.384;2023-06-26T09:45:02;31.20;99.90
18934;DHT22;9599;53.706;10.384;2023-06-26T09:47:31;31.20;99.90
18934;DHT22;9599;53.706;10.384;2023-06-26T09:49:59;30.90;99.90
18934;DHT22;9599;53.706;10.384;2023-06-26T09:52:29;30.50;99.90
18934;DHT22;9599;53.706;10.384;2023-06-26T09:55:08;29.80;99.90
18934;DHT22;9599;53.706;10.384;2023-06-26T09:57:36;29.30;99.90
18934;DHT22;9599;53.706;10.384;2023-06-26T10:00:05;29.20;99.90
18934;DHT22;9599;53.706;10.384;2023-06-26T10:02:40;29.30;99.90
18934;DHT22;9599;53.706;10.384;2023-06-26T10:05:09;29.00;99.90
18934;DHT22;9599;53.706;10.384;2023-06-26T10:07:40;28.40;99.90
18934;DHT22;9599;53.706;10.384;2023-06-26T10:10:08;27.30;99.90
18934;DHT22;9599;53.706;10.384;2023-06-26T10:12:38;26.70;99.90
18934;DHT22;9599;53.706;10.384;2023-06-26T10:15:06;26.20;99.90
18934;DHT22;9599;53.706;10.384;2023-06-26T10:17:39;25.80;99.90
18934;DHT22;9599;53.706;10.384;2023-06-26T10:20:10;25.70;99.90
18934;DHT22;9599;53.706;10.384;2023-06-26T10:22:44;25.60;99.90
18934;DHT22;9599;53.706;10.384;2023-06-26T10:25:15;25.60;99.90
18934;DHT22;9599;53.706;10.384;2023-06-26T10:27:48;25.40;99.90
18934;DHT22;9599;53.706;10.384;2023-06-26T10:30:21;25.20;99.90
18934;DHT22;9599;53.706;10.384;2023-06-26T10:32:50;25.20;99.90
18934;DHT22;9599;53.706;10.384;2023-06-26T10:35:19;25.20;99.90
18934;DHT22;9599;53.706;10.384;2023-06-26T10:37:50;24.80;99.90
18934;DHT22;9599;53.706;10.384;2023-06-26T10:40:24;24.70;99.90
18934;DHT22;9599;53.706;10.384;2023-06-26T10:43:05;24.40;99.90
18934;DHT22;9599;53.706;10.384;2023-06-26T10:45:35;24.20;99.90
18934;DHT22;9599;53.706;10.384;2023-06-26T10:48:04;24.20;99.90
18934;DHT22;9599;53.706;10.384;2023-06-26T10:50:33;24.20;99.90
18934;DHT22;9599;53.706;10.384;2023-06-26T10:53:11;23.90;99.90
18934;DHT22;9599;53.706;10.384;2023-06-26T10:55:44;23.80;99.90
18934;DHT22;9599;53.706;10.384;2023-06-26T10:58:31;23.50;99.90
18934;DHT22;9599;53.706;10.384;2023-06-26T11:01:18;23.20;99.90
18934;DHT22;9599;53.706;10.384;2023-06-26T11:03:48;22.90;99.90
18934;DHT22;9599;53.706;10.384;2023-06-26T11:06:21;22.70;99.90
18934;DHT22;9599;53.706;10.384;2023-06-26T11:08:51;22.70;99.90
18934;DHT22;9599;53.706;10.384;2023-06-26T11:11:21;22.50;99.90
18934;DHT22;9599;53.706;10.384;2023-06-26T11:13:50;22.40;99.90
18934;DHT22;9599;53.706;10.384;2023-06-26T11:16:18;22.30;99.90
18934;DHT22;9599;53.706;10.384;2023-06-26T11:18:46;22.20;99.90
18934;DHT22;9599;53.706;10.384;2023-06-26T11:21:14;22.30;99.90
18934;DHT22;9599;53.706;10.384;2023-06-26T11:23:44;22.30;99.90
18934;DHT22;9599;53.706;10.384;2023-06-26T11:26:18;22.20;99.90
18934;DHT22;9599;53.706;10.384;2023-06-26T11:28:49;22.20;99.90
18934;DHT22;9599;53.706;10.384;2023-06-26T11:31:27;22.10;99.90
18934;DHT22;9599;53.706;10.384;2023-06-26T11:33:57;22.30;99.90
18934;DHT22;9599;53.706;10.384;2023-06-26T11:36:26;22.30;99.90
18934;DHT22;9599;53.706;10.384;2023-06-26T11:38:54;22.40;99.90
18934;DHT22;9599;53.706;10.384;2023-06-26T11:41:28;22.70;99.90
18934;DHT22;9599;53.706;10.384;2023-06-26T11:44:00;22.90;99.90
18934;DHT22;9599;53.706;10.384;2023-06-26T11:46:31;23.00;99.90
18934;DHT22;9599;53.706;10.384;2023-06-26T11:49:00;23.00;99.90
18934;DHT22;9599;53.706;10.384;2023-06-26T11:51:30;22.70;99.90
18934;DHT22;9599;53.706;10.384;2023-06-26T11:54:01;22.50;99.90
18934;DHT22;9599;53.706;10.384;2023-06-26T11:56:34;22.40;99.90
18934;DHT22;9599;53.706;10.384;2023-06-26T11:59:03;22.50;99.90
18934;DHT22;9599;53.706;10.384;2023-06-26T12:01:36;23.10;99.90
18934;DHT22;9599;53.706;10.384;2023-06-26T12:04:06;23.20;99.90
18934;DHT22;9599;53.706;10.384;2023-06-26T12:06:37;23.20;99.90
18934;DHT22;9599;53.706;10.384;2023-06-26T12:09:08;23.10;99.90
18934;DHT22;9599;53.706;10.384;2023-06-26T12:11:41;23.20;99.90
18934;DHT22;9599;53.706;10.384;2023-06-26T12:14:11;23.60;99.90
18934;DHT22;9599;53.706;10.384;2023-06-26T12:16:42;24.00;99.90
18934;DHT22;9599;53.706;10.384;2023-06-26T12:19:10;24.00;99.90
18934;DHT22;9599;53.706;10.384;2023-06-26T12:21:48;23.80;99.90
18934;DHT22;9599;53.706;10.384;2023-06-26T12:24:20;23.80;99.90
18934;DHT22;9599;53.706;10.384;2023-06-26T12:26:52;23.50;99.90
18934;DHT22;9599;53.706;10.384;2023-06-26T12:29:29;23.40;99.90
18934;DHT22;9599;53.706;10.384;2023-06-26T12:31:59;23.40;99.90
18934;DHT22;9599;53.706;10.384;2023-06-26T12:34:30;23.60;99.90
18934;DHT22;9599;53.706;10.384;2023-06-26T12:37:01;23.70;99.90
18934;DHT22;9599;53.706;10.384;2023-06-26T12:39:30;23.70;99.90
18934;DHT22;9599;53.706;10.384;2023-06-26T12:42:15;23.90;99.90
18934;DHT22;9599;53.706;10.384;2023-06-26T12:44:44;24.00;99.90
18934;DHT22;9599;53.706;10.384;2023-06-26T12:47:13;24.00;99.90
18934;DHT22;9599;53.706;10.384;2023-06-26T12:49:43;24.20;99.90
18934;DHT22;9599;53.706;10.384;2023-06-26T12:52:13;24.20;99.90
18934;DHT22;9599;53.706;10.384;2023-06-26T12:54:43;24.00;99.90
18934;DHT22;9599;53.706;10.384;2023-06-26T12:57:11;24.00;99.90
18934;DHT22;9599;53.706;10.384;2023-06-26T12:59:43;24.10;99.90
18934;DHT22;9599;53.706;10.384;2023-06-26T13:02:11;24.20;99.90
18934;DHT22;9599;53.706;10.384;2023-06-26T13:04:40;24.30;99.90
18934;DHT22;9599;53.706;10.384;2023-06-26T13:07:10;24.10;99.90
18934;DHT22;9599;53.706;10.384;2023-06-26T13:09:39;24.10;99.90
18934;DHT22;9599;53.706;10.384;2023-06-26T13:12:08;24.10;99.90
18934;DHT22;9599;53.706;10.384;2023-06-26T13:14:36;24.30;99.90
18934;DHT22;9599;53.706;10.384;2023-06-26T13:17:06;24.20;99.90
18934;DHT22;9599;53.706;10.384;2023-06-26T13:19:36;24.20;99.90
18934;DHT22;9599;53.706;10.384;2023-06-26T13:22:04;24.20;99.90
18934;DHT22;9599;53.706;10.384;2023-06-26T13:24:32;24.20;99.90
18934;DHT22;9599;53.706;10.384;2023-06-26T13:27:00;24.10;99.90
18934;DHT22;9599;53.706;10.384;2023-06-26T13:29:29;24.20;99.90
18934;DHT22;9599;53.706;10.384;2023-06-26T13:31:57;24.00;99.90
18934;DHT22;9599;53.706;10.384;2023-06-26T13:34:27;24.10;99.90
18934;DHT22;9599;53.706;10.384;2023-06-26T13:36:56;24.20;99.90
18934;DHT22;9599;53.706;10.384;2023-06-26T13:39:26;24.10;99.90
18934;DHT22;9599;53.706;10.384;2023-06-26T13:41:54;24.10;99.90
18934;DHT22;9599;53.706;10.384;2023-06-26T13:44:23;24.10;99.90
18934;DHT22;9599;53.706;10.384;2023-06-26T13:47:07;24.10;99.90
18934;DHT22;9599;53.706;10.384;2023-06-26T13:49:37;24.10;99.90
18934;DHT22;9599;53.706;10.384;2023-06-26T13:52:06;24.10;99.90
18934;DHT22;9599;53.706;10.384;2023-06-26T13:54:35;24.00;99.90
18934;DHT22;9599;53.706;10.384;2023-06-26T13:57:04;23.90;99.90
18934;DHT22;9599;53.706;10.384;2023-06-26T13:59:32;23.90;99.90
18934;DHT22;9599;53.706;10.384;2023-06-26T14:02:02;23.90;99.90
18934;DHT22;9599;53.706;10.384;2023-06-26T14:04:32;23.90;99.90
18934;DHT22;9599;53.706;10.384;2023-06-26T14:07:01;23.60;99.90
18934;DHT22;9599;53.706;10.384;2023-06-26T14:09:30;23.60;99.90
18934;DHT22;9599;53.706;10.384;2023-06-26T14:11:58;23.70;99.90
18934;DHT22;9599;53.706;10.384;2023-06-26T14:14:26;23.80;99.90
18934;DHT22;9599;53.706;10.384;2023-06-26T14:16:54;23.80;99.90
18934;DHT22;9599;53.706;10.384;2023-06-26T14:19:22;23.60;99.90
18934;DHT22;9599;53.706;10.384;2023-06-26T14:21:50;23.60;99.90
18934;DHT22;9599;53.706;10.384;2023-06-26T14:24:19;23.60;99.90
18934;DHT22;9599;53.706;10.384;2023-06-26T14:26:47;23.80;99.90
18934;DHT22;9599;53.706;10.384;2023-06-26T14:29:15;24.10;99.90
18934;DHT22;9599;53.706;10.384;2023-06-26T14:31:44;24.20;99.90
18934;DHT22;9599;53.706;10.384;2023-06-26T14:34:16;24.20;99.90
18934;DHT22;9599;53.706;10.384;2023-06-26T14:36:44;24.20;99.90
18934;DHT22;9599;53.706;10.384;2023-06-26T14:39:12;23.80;99.90
18934;DHT22;9599;53.706;10.384;2023-06-26T14:41:43;23.40;99.90
18934;DHT22;9599;53.706;10.384;2023-06-26T14:44:12;23.30;99.90
18934;DHT22;9599;53.706;10.384;2023-06-26T14:46:40;23.30;99.90
18934;DHT22;9599;53.706;10.384;2023-06-26T14:49:08;23.40;99.90
18934;DHT22;9599;53.706;10.384;2023-06-26T14:51:36;23.60;99.90
18934;DHT22;9599;53.706;10.384;2023-06-26T14:54:06;23.70;99.90
18934;DHT22;9599;53.706;10.384;2023-06-26T14:56:34;23.90;99.90
18934;DHT22;9599;53.706;10.384;2023-06-26T14:59:03;23.80;99.90
18934;DHT22;9599;53.706;10.384;2023-06-26T15:01:31;23.50;99.90
18934;DHT22;9599;53.706;10.384;2023-06-26T15:03:59;23.50;99.90
18934;DHT22;9599;53.706;10.384;2023-06-26T15:06:27;23.30;99.90
18934;DHT22;9599;53.706;10.384;2023-06-26T15:08:55;23.10;99.90
18934;DHT22;9599;53.706;10.384;2023-06-26T15:11:23;23.10;99.90
18934;DHT22;9599;53.706;10.384;2023-06-26T15:13:51;22.80;99.90
18934;DHT22;9599;53.706;10.384;2023-06-26T15:16:21;22.80;99.90
18934;DHT22;9599;53.706;10.384;2023-06-26T15:18:49;22.90;99.90
18934;DHT22;9599;53.706;10.384;2023-06-26T15:21:17;22.80;99.90
18934;DHT22;9599;53.706;10.384;2023-06-26T15:23:46;22.60;99.90
18934;DHT22;9599;53.706;10.384;2023-06-26T15:26:14;22.40;99.90
18934;DHT22;9599;53.706;10.384;2023-06-26T15:28:42;22.30;99.90
18934;DHT22;9599;53.706;10.384;2023-06-26T15:31:10;22.50;99.90
18934;DHT22;9599;53.706;10.384;2023-06-26T15:33:40;22.80;99.90
18934;DHT22;9599;53.706;10.384;2023-06-26T15:36:08;23.10;99.90
18934;DHT22;9599;53.706;10.384;2023-06-26T15:38:36;23.40;99.90
18934;DHT22;9599;53.706;10.384;2023-06-26T15:41:04;23.50;99.90
18934;DHT22;9599;53.706;10.384;2023-06-26T15:43:33;23.40;99.90
18934;DHT22;9599;53.706;10.384;2023-06-26T15:46:01;23.00;99.90